Time;durP1;ratioP1;P1;durP2;ratioP2;P2;SDS_P1;SDS_P2;PMS_P1;PMS_P2;Temp;Humidity;BMP_temperature;BMP_pressure;BME280_temperature;BME280_humidity;BME280_pressure;Samples;Min_cycle;Max_cycle;Signal;HPM_P1;HPM_P2
2022/05/06 00:01:36;;;;;;;;;;;16.10;99.90;;;;;;5021787;28;19937;-77
2022/05/06 00:04:03;;;;;;;;;;;16.00;99.90;;;;;;5002517;28;19913;-77
2022/05/06 00:06:29;;;;;;;;;;;15.90;99.90;;;;;;5024445;28;19953;-77
2022/05/06 00:08:55;;;;;;;;;;;15.70;99.90;;;;;;5020263;28;20400;-77
2022/05/06 00:11:24;;;;;;;;;;;15.70;99.90;;;;;;5006019;28;19965;-77
2022/05/06 00:13:53;;;;;;;;;;;15.60;99.90;;;;;;5021534;28;19935;-78
2022/05/06 00:16:19;;;;;;;;;;;15.60;99.90;;;;;;5012806;28;19937;-77
2022/05/06 00:18:45;;;;;;;;;;;15.60;99.90;;;;;;5017405;28;19913;-77
2022/05/06 00:21:11;;;;;;;;;;;15.60;99.90;;;;;;5012932;28;20120;-77
2022/05/06 00:23:37;;;;;;;;;;;15.60;99.90;;;;;;5025623;28;19912;-77
2022/05/06 00:26:03;;;;;;;;;;;15.50;99.90;;;;;;5018774;28;19979;-77
2022/05/06 00:28:31;;;;;;;;;;;15.50;99.90;;;;;;5006253;28;19917;-78
2022/05/06 00:31:16;;;;;;;;;;;15.30;99.90;;;;;;5018562;28;19971;-77
2022/05/06 00:33:44;;;;;;;;;;;15.40;99.90;;;;;;5029816;28;20255;-77
2022/05/06 00:36:10;;;;;;;;;;;15.30;99.90;;;;;;5010749;28;19913;-77
2022/05/06 00:38:36;;;;;;;;;;;15.20;99.90;;;;;;5018228;28;20010;-77
2022/05/06 00:41:02;;;;;;;;;;;15.20;99.90;;;;;;5025980;28;19949;-77
2022/05/06 00:43:31;;;;;;;;;;;15.20;99.90;;;;;;5021503;28;19913;-77
2022/05/06 00:45:57;;;;;;;;;;;15.10;99.90;;;;;;5016752;28;19928;-77
2022/05/06 00:48:30;;;;;;;;;;;15.10;99.90;;;;;;5018164;28;19917;-77
2022/05/06 00:50:59;;;;;;;;;;;15.10;99.90;;;;;;5018254;28;20391;-78
2022/05/06 00:53:25;;;;;;;;;;;15.20;99.90;;;;;;5019699;28;20354;-77
2022/05/06 00:55:51;;;;;;;;;;;15.10;99.90;;;;;;5010338;28;19964;-77
2022/05/06 00:58:17;;;;;;;;;;;15.10;99.90;;;;;;5026726;28;19989;-77
2022/05/06 01:00:44;;;;;;;;;;;15.10;99.90;;;;;;5024026;28;19917;-77
2022/05/06 01:03:10;;;;;;;;;;;15.10;99.90;;;;;;5000641;28;19961;-77
2022/05/06 01:05:37;;;;;;;;;;;15.10;99.90;;;;;;5024005;28;19913;-77
2022/05/06 01:08:05;;;;;;;;;;;15.00;99.90;;;;;;5032905;28;19916;-78
2022/05/06 01:10:31;;;;;;;;;;;15.00;99.90;;;;;;5004908;28;19917;-78
2022/05/06 01:12:57;;;;;;;;;;;15.00;99.90;;;;;;5028235;28;19975;-78
2022/05/06 01:15:26;;;;;;;;;;;15.00;99.90;;;;;;5019117;28;19921;-77
2022/05/06 01:17:53;;;;;;;;;;;15.00;99.90;;;;;;5015091;28;20330;-77
2022/05/06 01:20:20;;;;;;;;;;;15.00;99.90;;;;;;5002234;28;19913;-77
2022/05/06 01:22:49;;;;;;;;;;;15.00;99.90;;;;;;5015135;28;19936;-78
2022/05/06 01:25:16;;;;;;;;;;;15.00;99.90;;;;;;5021521;28;19913;-77
2022/05/06 01:27:47;;;;;;;;;;;15.00;99.90;;;;;;5025904;28;19920;-79
2022/05/06 01:30:21;;;;;;;;;;;15.00;99.90;;;;;;5001408;28;19918;-78
2022/05/06 01:32:48;;;;;;;;;;;15.00;99.90;;;;;;5036450;28;19913;-77
2022/05/06 01:35:16;;;;;;;;;;;14.90;99.90;;;;;;5040582;28;19957;-76
2022/05/06 01:37:46;;;;;;;;;;;15.00;99.90;;;;;;5041818;28;20013;-76
2022/05/06 01:40:14;;;;;;;;;;;15.00;99.90;;;;;;5031387;28;19913;-77
2022/05/06 01:42:40;;;;;;;;;;;15.10;99.90;;;;;;5032950;28;19913;-80
2022/05/06 01:45:10;;;;;;;;;;;15.10;99.90;;;;;;5031283;28;19918;-77
2022/05/06 01:47:37;;;;;;;;;;;15.00;99.90;;;;;;5029707;28;19914;-77
2022/05/06 01:50:03;;;;;;;;;;;14.90;99.90;;;;;;5030996;28;19928;-77
2022/05/06 01:52:30;;;;;;;;;;;14.90;99.90;;;;;;5029298;28;19925;-78
2022/05/06 01:54:56;;;;;;;;;;;14.90;99.90;;;;;;5032538;28;19967;-78
2022/05/06 01:57:22;;;;;;;;;;;14.90;99.90;;;;;;5018371;28;19921;-78
2022/05/06 01:59:51;;;;;;;;;;;14.90;99.90;;;;;;5032482;28;19937;-77
2022/05/06 02:02:16;;;;;;;;;;;14.80;99.90;;;;;;5032416;28;19914;-77
2022/05/06 02:07:27;;;;;;;;;;;14.70;99.90;;;;;;5031631;28;20294;-78
2022/05/06 02:09:53;;;;;;;;;;;14.70;99.90;;;;;;5007249;28;19925;-78
2022/05/06 02:12:18;;;;;;;;;;;14.70;99.90;;;;;;5027067;28;19909;-78
2022/05/06 02:14:44;;;;;;;;;;;14.70;99.90;;;;;;5027982;28;19913;-77
2022/05/06 02:17:10;;;;;;;;;;;14.70;99.90;;;;;;5035676;28;19977;-79
2022/05/06 02:19:45;;;;;;;;;;;14.80;99.90;;;;;;5033033;28;19973;-77
2022/05/06 02:22:11;;;;;;;;;;;14.80;99.90;;;;;;5029450;28;19910;-78
2022/05/06 02:24:36;;;;;;;;;;;14.80;99.90;;;;;;5029237;28;19913;-77
2022/05/06 02:27:12;;;;;;;;;;;14.80;99.90;;;;;;5030843;28;19936;-77
2022/05/06 02:29:39;;;;;;;;;;;14.80;99.90;;;;;;5030952;28;19976;-80
2022/05/06 02:35:01;;;;;;;;;;;14.70;99.90;;;;;;5024504;28;19920;-77
2022/05/06 02:37:33;;;;;;;;;;;14.60;99.90;;;;;;5030317;28;19909;-79
2022/05/06 02:40:04;;;;;;;;;;;14.60;99.90;;;;;;5042388;28;19998;-78
2022/05/06 02:42:40;;;;;;;;;;;;;;;;;;;;;
2022/05/06 02:45:10;;;;;;;;;;;14.70;99.90;;;;;;5019515;28;19993;-77
2022/05/06 02:47:37;;;;;;;;;;;14.60;99.90;;;;;;5034040;28;19980;-77
2022/05/06 02:50:04;;;;;;;;;;;14.50;99.90;;;;;;5024405;28;20168;-78
2022/05/06 02:52:37;;;;;;;;;;;14.50;99.90;;;;;;5010935;28;20032;-80
2022/05/06 02:55:03;;;;;;;;;;;14.60;99.90;;;;;;5022503;28;19929;-78
2022/05/06 02:57:29;;;;;;;;;;;14.70;99.90;;;;;;5013370;28;19913;-77
2022/05/06 02:59:55;;;;;;;;;;;14.70;99.90;;;;;;5033311;28;20004;-76
2022/05/06 03:02:21;;;;;;;;;;;14.70;99.90;;;;;;5024254;28;19959;-78
2022/05/06 03:04:47;;;;;;;;;;;14.60;99.90;;;;;;4994868;28;19914;-78
2022/05/06 03:07:14;;;;;;;;;;;14.50;99.90;;;;;;5035118;28;19951;-77
2022/05/06 03:09:42;;;;;;;;;;;14.50;99.90;;;;;;5026818;28;19924;-77
2022/05/06 03:12:08;;;;;;;;;;;14.50;99.90;;;;;;5035323;28;19914;-80
2022/05/06 03:14:37;;;;;;;;;;;14.50;99.90;;;;;;5026963;28;19940;-77
2022/05/06 03:17:12;;;;;;;;;;;14.50;99.90;;;;;;5024892;28;19917;-76
2022/05/06 03:19:38;;;;;;;;;;;14.50;99.90;;;;;;5023683;28;20555;-77
2022/05/06 03:22:12;;;;;;;;;;;14.40;99.90;;;;;;5008910;28;19967;-78
2022/05/06 03:24:39;;;;;;;;;;;14.50;99.90;;;;;;5013033;28;19920;-77
2022/05/06 03:27:59;;;;;;;;;;;14.50;99.90;;;;;;5023407;28;19920;-77
2022/05/06 03:29:56;;;;;;;;;;;14.50;99.90;;;;;;5022598;28;19922;-75
2022/05/06 03:32:27;;;;;;;;;;;14.40;99.90;;;;;;5016538;28;20397;-76
2022/05/06 03:34:53;;;;;;;;;;;14.40;99.90;;;;;;5036669;28;19958;-79
2022/05/06 03:37:19;;;;;;;;;;;14.40;99.90;;;;;;5033060;28;19981;-77
2022/05/06 03:39:45;;;;;;;;;;;14.40;99.90;;;;;;5028724;28;19980;-77
2022/05/06 03:42:11;;;;;;;;;;;14.40;99.90;;;;;;5027988;28;19914;-77
2022/05/06 03:44:37;;;;;;;;;;;14.40;99.90;;;;;;5015813;28;20012;-77
2022/05/06 03:47:30;;;;;;;;;;;14.40;99.90;;;;;;5013664;28;19917;-77
2022/05/06 03:52:41;;;;;;;;;;;14.40;99.90;;;;;;5023449;28;19975;-77
2022/05/06 03:55:20;;;;;;;;;;;14.40;99.90;;;;;;5010467;28;19949;-77
2022/05/06 03:57:57;;;;;;;;;;;14.40;99.90;;;;;;5009055;28;19914;-79
2022/05/06 04:00:24;;;;;;;;;;;14.40;99.90;;;;;;5020956;28;19925;-78
2022/05/06 04:05:34;;;;;;;;;;;14.50;99.90;;;;;;5027626;28;19984;-79
2022/05/06 04:08:00;;;;;;;;;;;14.40;99.90;;;;;;5026564;28;19977;-78
2022/05/06 04:10:35;;;;;;;;;;;14.50;99.90;;;;;;5035714;28;19913;-76
2022/05/06 04:13:04;;;;;;;;;;;14.50;99.90;;;;;;5051836;28;20428;-78
2022/05/06 04:15:47;;;;;;;;;;;14.50;99.90;;;;;;5052213;28;19976;-81
2022/05/06 04:18:48;;;;;;;;;;;;;;;;;;;;;
2022/05/06 04:24:49;;;;;;;;;;;14.30;99.90;;;;;;5032757;28;19939;-81
2022/05/06 04:27:38;;;;;;;;;;;14.30;99.90;;;;;;5033928;28;19910;-77
2022/05/06 04:30:09;;;;;;;;;;;14.30;99.90;;;;;;5040357;28;19943;-78
2022/05/06 04:39:53;;;;;;;;;;;14.20;99.90;;;;;;4889561;29;19915;-77
2022/05/06 04:48:51;;;;;;;;;;;14.40;99.90;;;;;;4964281;28;19932;-77
2022/05/06 04:51:17;;;;;;;;;;;14.30;99.90;;;;;;5040576;28;19921;-79
2022/05/06 04:53:49;;;;;;;;;;;14.30;99.90;;;;;;5037557;28;19909;-78
2022/05/06 04:56:21;;;;;;;;;;;14.30;99.90;;;;;;5030588;28;19909;-77
2022/05/06 04:59:00;;;;;;;;;;;14.30;99.90;;;;;;5037231;28;19913;-78
2022/05/06 05:01:35;;;;;;;;;;;14.30;99.90;;;;;;5012968;28;19975;-78
2022/05/06 05:04:10;;;;;;;;;;;14.30;99.90;;;;;;5026284;28;20005;-76
2022/05/06 05:06:45;;;;;;;;;;;14.30;99.90;;;;;;5032810;28;19928;-77
2022/05/06 05:09:11;;;;;;;;;;;14.30;99.90;;;;;;5029783;28;19914;-76
2022/05/06 05:11:40;;;;;;;;;;;14.30;99.90;;;;;;5032112;28;19913;-77
2022/05/06 05:20:27;;;;;;;;;;;14.40;99.90;;;;;;4988255;28;19964;-78
2022/05/06 05:22:56;;;;;;;;;;;14.50;99.90;;;;;;4990534;28;19922;-79
2022/05/06 05:34:52;;;;;;;;;;;14.60;99.90;;;;;;4914977;29;20325;-70
2022/05/06 05:37:17;;;;;;;;;;;14.50;99.90;;;;;;4913198;29;19915;-72
2022/05/06 05:39:46;;;;;;;;;;;14.70;99.90;;;;;;4951295;28;19922;-70
2022/05/06 05:42:13;;;;;;;;;;;14.70;99.90;;;;;;5010140;28;19914;-70
2022/05/06 05:50:07;;;;;;;;;;;14.60;99.90;;;;;;5013695;28;19971;-71
2022/05/06 05:52:33;;;;;;;;;;;14.60;99.90;;;;;;5017320;28;19917;-70
2022/05/06 05:54:59;;;;;;;;;;;14.50;99.90;;;;;;5020058;28;20341;-71
2022/05/06 05:57:28;;;;;;;;;;;14.50;99.90;;;;;;5014756;28;20453;-72
2022/05/06 05:59:54;;;;;;;;;;;14.60;99.90;;;;;;5012176;28;19917;-70
2022/05/06 06:02:19;;;;;;;;;;;14.60;99.90;;;;;;5015049;28;19921;-71
2022/05/06 06:04:55;;;;;;;;;;;14.60;99.90;;;;;;5005144;28;19920;-70
2022/05/06 06:07:20;;;;;;;;;;;14.70;99.90;;;;;;5011108;28;21114;-70
2022/05/06 06:09:46;;;;;;;;;;;14.70;99.90;;;;;;5017188;28;19917;-70
2022/05/06 06:12:12;;;;;;;;;;;14.70;99.90;;;;;;5014403;28;20436;-70
2022/05/06 06:14:37;;;;;;;;;;;14.70;99.90;;;;;;5015627;28;20173;-70
2022/05/06 06:17:03;;;;;;;;;;;14.70;99.90;;;;;;5014502;28;19917;-69
2022/05/06 06:19:34;;;;;;;;;;;14.70;99.90;;;;;;5006441;28;20435;-70
2022/05/06 06:22:00;;;;;;;;;;;14.70;99.90;;;;;;4987573;28;19910;-70
2022/05/06 06:24:29;;;;;;;;;;;14.80;99.90;;;;;;5007680;28;20448;-70
2022/05/06 06:26:55;;;;;;;;;;;14.80;99.90;;;;;;5013154;28;19917;-70
2022/05/06 06:29:21;;;;;;;;;;;15.00;99.90;;;;;;4987163;28;19921;-70
2022/05/06 06:31:47;;;;;;;;;;;15.00;99.90;;;;;;5006220;28;19913;-70
2022/05/06 06:34:13;;;;;;;;;;;15.10;99.90;;;;;;5011177;28;20292;-70
2022/05/06 06:36:38;;;;;;;;;;;15.20;99.90;;;;;;5011497;28;19914;-70
2022/05/06 06:39:04;;;;;;;;;;;15.20;99.90;;;;;;5006578;28;19917;-70
2022/05/06 06:41:30;;;;;;;;;;;15.20;99.90;;;;;;5013733;28;19914;-70
2022/05/06 06:43:56;;;;;;;;;;;15.20;99.90;;;;;;5014372;28;20016;-70
2022/05/06 06:46:22;;;;;;;;;;;15.30;99.90;;;;;;5010639;28;19964;-70
2022/05/06 06:48:47;;;;;;;;;;;15.40;99.90;;;;;;5010962;28;20323;-69
2022/05/06 06:51:13;;;;;;;;;;;15.50;99.90;;;;;;5030279;28;20337;-69
2022/05/06 06:53:39;;;;;;;;;;;15.50;99.90;;;;;;5018912;28;19956;-69
2022/05/06 06:56:05;;;;;;;;;;;15.60;99.90;;;;;;5013513;28;19944;-69
2022/05/06 06:58:30;;;;;;;;;;;15.60;99.90;;;;;;5013802;28;19914;-70
2022/05/06 07:00:57;;;;;;;;;;;15.80;99.90;;;;;;4995480;28;20009;-69
2022/05/06 07:03:22;;;;;;;;;;;15.90;99.90;;;;;;5011590;28;19922;-70
2022/05/06 07:14:01;;;;;;;;;;;16.10;99.90;;;;;;5012093;28;19920;-70
2022/05/06 07:16:27;;;;;;;;;;;16.20;99.90;;;;;;5011569;28;19936;-70
2022/05/06 07:18:53;;;;;;;;;;;16.30;99.90;;;;;;5009329;28;19917;-70
2022/05/06 07:21:18;;;;;;;;;;;16.40;99.90;;;;;;5013703;28;19916;-71
2022/05/06 07:23:44;;;;;;;;;;;16.40;99.90;;;;;;5010683;28;19920;-69
2022/05/06 07:26:10;;;;;;;;;;;16.40;99.90;;;;;;5011316;28;20286;-70
2022/05/06 07:28:35;;;;;;;;;;;16.30;99.90;;;;;;5011459;28;19976;-69
2022/05/06 07:31:01;;;;;;;;;;;16.30;99.90;;;;;;5011963;28;19922;-69
2022/05/06 07:33:27;;;;;;;;;;;16.20;99.90;;;;;;5011842;28;19920;-69
2022/05/06 07:35:53;;;;;;;;;;;16.10;99.90;;;;;;5027459;28;19917;-69
2022/05/06 07:38:18;;;;;;;;;;;16.00;99.90;;;;;;5036578;28;19917;-69
2022/05/06 07:40:44;;;;;;;;;;;16.00;99.90;;;;;;5036731;28;19909;-69
2022/05/06 07:43:10;;;;;;;;;;;16.00;99.90;;;;;;5037148;28;19928;-70
2022/05/06 07:45:35;;;;;;;;;;;16.00;99.90;;;;;;5018701;28;19936;-69
2022/05/06 07:48:03;;;;;;;;;;;16.00;99.90;;;;;;5016608;28;19971;-69
2022/05/06 07:50:31;;;;;;;;;;;16.10;99.90;;;;;;5013708;28;20020;-69
2022/05/06 07:52:58;;;;;;;;;;;16.10;99.90;;;;;;5008491;28;19928;-69
2022/05/06 07:55:23;;;;;;;;;;;16.20;99.90;;;;;;5015925;28;19917;-69
2022/05/06 07:57:50;;;;;;;;;;;16.20;99.90;;;;;;5024130;28;19913;-69
2022/05/06 08:00:19;;;;;;;;;;;16.20;99.90;;;;;;5016821;28;20274;-70
2022/05/06 08:05:32;;;;;;;;;;;16.30;99.90;;;;;;5012916;28;19924;-69
2022/05/06 08:07:57;;;;;;;;;;;16.30;99.90;;;;;;5012368;28;19917;-69
2022/05/06 08:10:23;;;;;;;;;;;16.40;99.90;;;;;;5015923;28;20375;-69
2022/05/06 08:12:49;;;;;;;;;;;16.40;99.90;;;;;;5016207;28;19909;-69
2022/05/06 08:15:15;;;;;;;;;;;16.50;99.90;;;;;;5022208;28;19920;-69
2022/05/06 08:17:41;;;;;;;;;;;16.40;99.90;;;;;;5016642;28;19913;-74
2022/05/06 08:20:08;;;;;;;;;;;16.50;99.90;;;;;;5016744;28;19913;-69
2022/05/06 08:22:35;;;;;;;;;;;16.60;99.90;;;;;;5015534;28;19996;-69
2022/05/06 08:25:02;;;;;;;;;;;16.70;99.90;;;;;;5019861;28;19913;-69
2022/05/06 08:27:27;;;;;;;;;;;16.70;99.90;;;;;;5016246;28;19953;-69
2022/05/06 08:29:53;;;;;;;;;;;16.70;99.90;;;;;;5015997;28;19949;-69
2022/05/06 08:32:19;;;;;;;;;;;16.60;99.90;;;;;;5014509;28;19921;-70
2022/05/06 08:34:47;;;;;;;;;;;16.70;99.90;;;;;;5027741;28;19971;-73
2022/05/06 08:37:13;;;;;;;;;;;16.70;99.90;;;;;;5020396;28;20374;-69
2022/05/06 08:39:38;;;;;;;;;;;16.70;99.90;;;;;;5016455;28;19910;-70
2022/05/06 08:42:06;;;;;;;;;;;16.70;99.90;;;;;;5015997;28;19917;-69
2022/05/06 08:52:47;;;;;;;;;;;17.00;99.90;;;;;;5017797;28;19921;-71
2022/05/06 08:55:12;;;;;;;;;;;17.10;99.90;;;;;;5024125;28;19910;-70
2022/05/06 08:57:40;;;;;;;;;;;17.10;99.90;;;;;;5015839;28;19913;-69
2022/05/06 09:00:06;;;;;;;;;;;17.30;99.90;;;;;;5015513;28;19909;-70
2022/05/06 09:02:37;;;;;;;;;;;17.40;99.90;;;;;;5014674;28;19913;-69
2022/05/06 09:05:13;;;;;;;;;;;17.60;99.90;;;;;;5012585;28;19957;-69
2022/05/06 09:07:40;;;;;;;;;;;17.80;99.90;;;;;;5016034;28;20000;-70
2022/05/06 09:10:14;;;;;;;;;;;17.90;99.90;;;;;;5015744;28;20347;-69
2022/05/06 09:12:41;;;;;;;;;;;17.80;99.90;;;;;;5013805;28;20446;-69
2022/05/06 09:17:52;;;;;;;;;;;17.20;99.90;;;;;;5007493;28;19920;-70
2022/05/06 09:20:18;;;;;;;;;;;17.10;99.90;;;;;;5018973;28;20012;-70
2022/05/06 09:22:44;;;;;;;;;;;17.10;99.90;;;;;;5023067;28;19913;-70
2022/05/06 09:25:10;;;;;;;;;;;17.10;99.90;;;;;;5027212;28;19913;-70
2022/05/06 09:27:35;;;;;;;;;;;17.00;99.90;;;;;;5016929;28;20290;-70
2022/05/06 09:30:08;;;;;;;;;;;17.10;99.90;;;;;;5011913;28;20445;-69
2022/05/06 09:32:33;;;;;;;;;;;17.10;99.90;;;;;;4996171;28;20012;-70
2022/05/06 09:34:59;;;;;;;;;;;17.10;99.90;;;;;;5012156;28;19952;-70
2022/05/06 09:37:45;;;;;;;;;;;17.00;99.90;;;;;;4998058;28;19913;-70
2022/05/06 09:40:11;;;;;;;;;;;17.00;99.90;;;;;;5015791;28;20358;-70
2022/05/06 09:42:38;;;;;;;;;;;17.10;99.90;;;;;;5017796;28;19909;-70
2022/05/06 09:45:04;;;;;;;;;;;17.10;99.90;;;;;;5027434;28;19917;-70
2022/05/06 09:47:32;;;;;;;;;;;17.00;99.90;;;;;;5022798;28;19910;-72
2022/05/06 09:49:58;;;;;;;;;;;17.00;99.90;;;;;;5022856;28;19921;-69
2022/05/06 09:52:24;;;;;;;;;;;17.00;99.90;;;;;;5019781;28;19913;-69
2022/05/06 09:54:49;;;;;;;;;;;17.10;99.90;;;;;;5023629;28;20393;-70
2022/05/06 09:57:16;;;;;;;;;;;17.10;99.90;;;;;;5017303;28;19960;-69
2022/05/06 09:59:42;;;;;;;;;;;17.20;99.90;;;;;;5025292;28;20302;-70
2022/05/06 10:02:12;;;;;;;;;;;17.10;99.90;;;;;;5021699;28;19909;-69
2022/05/06 10:04:38;;;;;;;;;;;17.20;99.90;;;;;;5026684;28;19913;-69
2022/05/06 10:07:11;;;;;;;;;;;17.40;99.90;;;;;;5034241;28;19928;-69
2022/05/06 10:09:38;;;;;;;;;;;17.40;99.90;;;;;;5029916;28;19917;-69
2022/05/06 10:12:05;;;;;;;;;;;17.50;99.90;;;;;;5017435;28;19918;-69
2022/05/06 10:14:31;;;;;;;;;;;17.60;99.90;;;;;;5019957;28;19913;-70
2022/05/06 10:16:57;;;;;;;;;;;17.80;99.90;;;;;;5021471;28;21519;-69
2022/05/06 10:19:26;;;;;;;;;;;17.90;99.90;;;;;;5024896;28;19925;-69
2022/05/06 10:21:56;;;;;;;;;;;17.90;99.90;;;;;;5020593;28;19917;-71
2022/05/06 10:24:22;;;;;;;;;;;18.10;99.90;;;;;;5026030;28;20339;-71
2022/05/06 10:26:48;;;;;;;;;;;18.30;99.90;;;;;;5004065;28;19949;-69
2022/05/06 10:34:55;;;;;;;;;;;18.20;99.90;;;;;;5019606;28;19921;-69
2022/05/06 10:37:22;;;;;;;;;;;18.30;99.90;;;;;;5019793;28;19964;-70
2022/05/06 10:39:48;;;;;;;;;;;18.40;99.90;;;;;;5020504;28;19920;-71
2022/05/06 10:42:17;;;;;;;;;;;18.60;99.90;;;;;;5018044;28;20417;-71
2022/05/06 10:44:43;;;;;;;;;;;18.60;99.90;;;;;;5000851;28;19922;-69
2022/05/06 10:47:12;;;;;;;;;;;18.60;99.90;;;;;;5019529;28;19940;-69
2022/05/06 10:49:37;;;;;;;;;;;18.60;99.90;;;;;;5018110;28;19961;-69
2022/05/06 10:52:15;;;;;;;;;;;18.50;99.90;;;;;;5016313;28;19967;-69
2022/05/06 10:54:47;;;;;;;;;;;18.60;99.90;;;;;;5016707;28;19932;-69
2022/05/06 10:57:13;;;;;;;;;;;18.70;99.90;;;;;;5002302;28;19917;-69
2022/05/06 10:59:56;;;;;;;;;;;18.90;99.90;;;;;;5030018;28;19920;-69
2022/05/06 11:02:23;;;;;;;;;;;19.00;99.90;;;;;;5016503;28;19916;-69
2022/05/06 11:04:53;;;;;;;;;;;19.10;99.90;;;;;;5022715;28;19921;-70
2022/05/06 11:07:19;;;;;;;;;;;19.30;99.90;;;;;;4999846;28;20445;-69
2022/05/06 11:09:45;;;;;;;;;;;19.40;99.90;;;;;;5014208;28;19913;-69
2022/05/06 11:12:15;;;;;;;;;;;19.60;99.90;;;;;;5003426;28;19913;-69
2022/05/06 11:14:40;;;;;;;;;;;19.70;99.90;;;;;;5018532;28;19936;-69
2022/05/06 11:17:15;;;;;;;;;;;19.60;99.90;;;;;;5037319;28;19916;-69
2022/05/06 11:19:41;;;;;;;;;;;19.70;99.90;;;;;;5027321;28;19940;-69
2022/05/06 11:22:08;;;;;;;;;;;19.80;99.90;;;;;;5024051;28;20528;-69
2022/05/06 11:24:34;;;;;;;;;;;19.80;99.90;;;;;;5027830;28;19925;-69
2022/05/06 11:27:12;;;;;;;;;;;19.70;99.90;;;;;;5025150;28;19910;-70
2022/05/06 11:29:57;;;;;;;;;;;19.70;99.90;;;;;;5015950;28;19929;-69
2022/05/06 11:32:23;;;;;;;;;;;19.80;99.90;;;;;;5017398;28;19941;-71
2022/05/06 11:34:59;;;;;;;;;;;19.90;99.90;;;;;;5016809;28;19909;-69
2022/05/06 11:37:26;;;;;;;;;;;19.80;99.90;;;;;;5024144;28;19960;-69
2022/05/06 11:40:18;;;;;;;;;;;19.80;99.90;;;;;;5026735;28;19921;-69
2022/05/06 11:42:38;;;;;;;;;;;19.80;99.90;;;;;;5017745;28;19952;-72
2022/05/06 11:47:48;;;;;;;;;;;19.80;99.90;;;;;;5031299;28;19999;-70
2022/05/06 11:50:14;;;;;;;;;;;19.60;99.90;;;;;;5018524;28;20331;-69
2022/05/06 11:52:40;;;;;;;;;;;19.50;99.90;;;;;;5021413;28;19991;-70
2022/05/06 11:55:06;;;;;;;;;;;19.30;99.90;;;;;;5024071;28;20499;-69
2022/05/06 11:57:35;;;;;;;;;;;19.20;99.90;;;;;;5024512;28;19914;-70
2022/05/06 12:00:04;;;;;;;;;;;19.00;99.90;;;;;;5018189;28;19913;-70
2022/05/06 12:02:30;;;;;;;;;;;18.90;99.90;;;;;;5023852;28;19910;-69
2022/05/06 12:04:56;;;;;;;;;;;18.80;99.90;;;;;;5023245;28;19920;-69
2022/05/06 12:07:21;;;;;;;;;;;18.90;99.90;;;;;;5022168;28;19924;-70
2022/05/06 12:09:47;;;;;;;;;;;19.10;99.90;;;;;;5021187;28;19932;-70
2022/05/06 12:12:13;;;;;;;;;;;19.20;99.90;;;;;;5023544;28;19921;-69
2022/05/06 12:14:39;;;;;;;;;;;19.40;99.90;;;;;;5025288;28;19963;-69
2022/05/06 12:17:09;;;;;;;;;;;19.80;99.90;;;;;;5025987;28;19913;-73
2022/05/06 12:19:34;;;;;;;;;;;19.90;99.90;;;;;;5021398;28;19920;-69
2022/05/06 12:22:10;;;;;;;;;;;20.00;99.90;;;;;;5019641;28;19913;-69
2022/05/06 12:24:42;;;;;;;;;;;20.00;99.90;;;;;;5014801;28;19921;-70
2022/05/06 12:27:08;;;;;;;;;;;19.80;99.90;;;;;;5019241;28;20318;-70
2022/05/06 12:29:37;;;;;;;;;;;19.80;99.90;;;;;;5012369;28;19921;-70
2022/05/06 12:32:06;;;;;;;;;;;19.50;99.90;;;;;;5018721;28;19961;-70
2022/05/06 12:34:33;;;;;;;;;;;19.30;99.90;;;;;;5022987;28;19913;-70
2022/05/06 12:37:09;;;;;;;;;;;19.10;99.90;;;;;;5016352;28;19944;-70
2022/05/06 12:39:39;;;;;;;;;;;19.10;99.90;;;;;;4994825;28;19953;-70
2022/05/06 12:42:12;;;;;;;;;;;19.10;99.90;;;;;;5015561;28;20217;-71
2022/05/06 12:44:49;;;;;;;;;;;18.90;99.90;;;;;;5014448;28;19914;-69
2022/05/06 12:50:06;;;;;;;;;;;18.80;99.90;;;;;;5012804;28;20306;-71
2022/05/06 12:52:42;;;;;;;;;;;18.70;99.90;;;;;;5016070;28;19910;-70
2022/05/06 12:55:10;;;;;;;;;;;18.80;99.90;;;;;;5022933;28;19914;-73
2022/05/06 12:57:41;;;;;;;;;;;18.80;99.90;;;;;;4998707;28;20145;-70
2022/05/06 13:00:19;;;;;;;;;;;18.80;99.90;;;;;;5013644;28;19953;-74
2022/05/06 13:02:45;;;;;;;;;;;18.70;99.90;;;;;;5010665;28;19913;-70
2022/05/06 13:05:19;;;;;;;;;;;18.60;99.90;;;;;;4989945;28;20388;-70
2022/05/06 13:07:45;;;;;;;;;;;18.70;99.90;;;;;;5003785;28;19917;-71
2022/05/06 13:10:13;;;;;;;;;;;18.70;99.90;;;;;;5014692;28;19917;-70
2022/05/06 13:12:39;;;;;;;;;;;18.70;99.90;;;;;;5014892;28;20007;-71
2022/05/06 13:15:05;;;;;;;;;;;18.80;99.90;;;;;;5014313;28;19914;-70
2022/05/06 13:17:31;;;;;;;;;;;18.80;99.90;;;;;;5028038;28;19968;-70
2022/05/06 13:19:57;;;;;;;;;;;19.00;99.90;;;;;;5018362;28;19914;-70
2022/05/06 13:22:25;;;;;;;;;;;19.10;99.90;;;;;;5021579;28;19949;-70
2022/05/06 13:24:51;;;;;;;;;;;19.10;99.90;;;;;;5018993;28;19921;-73
2022/05/06 13:27:17;;;;;;;;;;;19.10;99.90;;;;;;5005243;28;20007;-70
2022/05/06 13:29:43;;;;;;;;;;;19.10;99.90;;;;;;5017388;28;19922;-70
2022/05/06 13:32:11;;;;;;;;;;;19.00;99.90;;;;;;5022217;28;19960;-70
2022/05/06 13:34:40;;;;;;;;;;;18.90;99.90;;;;;;5019706;28;19913;-70
2022/05/06 13:37:08;;;;;;;;;;;18.70;99.90;;;;;;5030284;28;19916;-70
2022/05/06 13:42:39;;;;;;;;;;;18.50;99.90;;;;;;5011784;28;19920;-70
2022/05/06 13:45:05;;;;;;;;;;;18.30;99.90;;;;;;5021296;28;19956;-71
2022/05/06 13:47:31;;;;;;;;;;;18.10;99.90;;;;;;5025342;28;19913;-70
2022/05/06 13:49:56;;;;;;;;;;;18.00;99.90;;;;;;5012394;28;19924;-71
2022/05/06 13:52:22;;;;;;;;;;;18.00;99.90;;;;;;5028061;28;19913;-70
2022/05/06 13:54:48;;;;;;;;;;;18.00;99.90;;;;;;5025283;28;19917;-70
2022/05/06 13:59:58;;;;;;;;;;;17.90;99.90;;;;;;5013498;28;19921;-70
2022/05/06 14:02:24;;;;;;;;;;;17.90;99.90;;;;;;5023148;28;19913;-70
2022/05/06 14:04:49;;;;;;;;;;;17.80;99.90;;;;;;5014871;28;19913;-71
2022/05/06 14:07:15;;;;;;;;;;;17.80;99.90;;;;;;5017918;28;19917;-70
2022/05/06 14:09:41;;;;;;;;;;;17.90;99.90;;;;;;5001113;28;19917;-71
2022/05/06 14:12:09;;;;;;;;;;;17.90;99.90;;;;;;5031764;28;19979;-70
2022/05/06 14:14:35;;;;;;;;;;;18.10;99.90;;;;;;5034264;28;19979;-70
2022/05/06 14:17:01;;;;;;;;;;;18.20;99.90;;;;;;5027731;28;19914;-70
2022/05/06 14:19:27;;;;;;;;;;;18.20;99.90;;;;;;5013520;28;19917;-71
2022/05/06 14:21:53;;;;;;;;;;;18.30;99.90;;;;;;5022854;28;19927;-70
2022/05/06 14:24:18;;;;;;;;;;;18.50;99.90;;;;;;5028067;28;19909;-71
2022/05/06 14:26:44;;;;;;;;;;;18.60;99.90;;;;;;5028489;28;20363;-70
2022/05/06 14:29:11;;;;;;;;;;;18.50;99.90;;;;;;5019583;28;19921;-72
2022/05/06 14:31:36;;;;;;;;;;;18.50;99.90;;;;;;5021156;28;19948;-70
2022/05/06 14:34:02;;;;;;;;;;;18.40;99.90;;;;;;5014416;28;19917;-71
2022/05/06 14:36:28;;;;;;;;;;;18.50;99.90;;;;;;5015599;28;20378;-70
2022/05/06 14:38:54;;;;;;;;;;;18.40;99.90;;;;;;5027090;28;19928;-71
2022/05/06 14:41:21;;;;;;;;;;;18.40;99.90;;;;;;5032764;28;19910;-70
2022/05/06 14:43:46;;;;;;;;;;;18.50;99.90;;;;;;5015214;28;19967;-70
2022/05/06 14:46:12;;;;;;;;;;;18.50;99.90;;;;;;5013172;28;19941;-71
2022/05/06 14:48:38;;;;;;;;;;;18.40;99.90;;;;;;5024329;28;20227;-70
2022/05/06 14:51:04;;;;;;;;;;;18.30;99.90;;;;;;5017652;28;19921;-71
2022/05/06 14:53:30;;;;;;;;;;;18.30;99.90;;;;;;5000978;28;19936;-70
2022/05/06 14:55:56;;;;;;;;;;;18.20;99.90;;;;;;5018010;28;20365;-73
2022/05/06 14:58:22;;;;;;;;;;;18.20;99.90;;;;;;5008263;28;20004;-70
2022/05/06 15:00:47;;;;;;;;;;;18.20;99.90;;;;;;5010066;28;20266;-70
2022/05/06 15:03:13;;;;;;;;;;;18.20;99.90;;;;;;5007575;28;19920;-70
2022/05/06 15:05:39;;;;;;;;;;;18.20;99.90;;;;;;5007242;28;19914;-70
2022/05/06 15:08:05;;;;;;;;;;;18.20;99.90;;;;;;5011420;28;19921;-70
2022/05/06 15:10:31;;;;;;;;;;;18.20;99.90;;;;;;5005208;28;19940;-70
2022/05/06 15:12:57;;;;;;;;;;;18.20;99.90;;;;;;5008486;28;19914;-71
2022/05/06 15:15:23;;;;;;;;;;;18.20;99.90;;;;;;5019255;28;19913;-70
2022/05/06 15:19:23;;;;;;;;;;;18.10;99.90;;;;;;5016344;28;19913;-71
2022/05/06 15:20:42;;;;;;;;;;;18.20;99.90;;;;;;5012087;28;19921;-72
2022/05/06 15:23:08;;;;;;;;;;;18.30;99.90;;;;;;5009466;28;19945;-71
2022/05/06 15:25:34;;;;;;;;;;;18.30;99.90;;;;;;5011169;28;19940;-70
2022/05/06 15:28:00;;;;;;;;;;;18.40;99.90;;;;;;5010132;28;20322;-71
2022/05/06 15:30:26;;;;;;;;;;;18.40;99.90;;;;;;5010489;28;20033;-72
2022/05/06 15:32:52;;;;;;;;;;;18.40;99.90;;;;;;5009788;28;20318;-70
2022/05/06 15:35:17;;;;;;;;;;;18.40;99.90;;;;;;4993719;28;19969;-70
2022/05/06 15:37:43;;;;;;;;;;;18.20;99.90;;;;;;5010357;28;19913;-70
2022/05/06 15:40:10;;;;;;;;;;;18.10;99.90;;;;;;5012987;28;19913;-70
2022/05/06 15:42:38;;;;;;;;;;;18.00;99.90;;;;;;5007917;28;20363;-70
2022/05/06 15:45:13;;;;;;;;;;;18.00;99.90;;;;;;5010438;28;20016;-71
2022/05/06 15:47:39;;;;;;;;;;;17.90;99.90;;;;;;5013187;28;19944;-71
2022/05/06 15:50:08;;;;;;;;;;;17.80;99.90;;;;;;4986025;28;19952;-70
2022/05/06 15:52:36;;;;;;;;;;;17.80;99.90;;;;;;4990905;28;19964;-70